Time;durP1;ratioP1;P1;durP2;ratioP2;P2;SDS_P1;SDS_P2;PMS_P1;PMS_P2;Temp;Humidity;BMP_temperature;BMP_pressure;BME280_temperature;BME280_humidity;BME280_pressure;Samples;Min_cycle;Max_cycle;Signal;HPM_P1;HPM_P2
2022/03/06 00:01:49;;;;;;;7.15;3.03;;;;;;;;;;5050998;28;20137;-67
2022/03/06 00:04:15;;;;;;;7.25;2.90;;;;;;;;;;5053284;28;20054;-66
2022/03/06 00:06:41;;;;;;;5.40;2.60;;;;;;;;;;5053637;28;20120;-67
2022/03/06 00:09:07;;;;;;;6.25;2.92;;;;;;;;;;5052425;28;20050;-67
2022/03/06 00:11:33;;;;;;;5.50;2.80;;;;;;;;;;5033215;28;20159;-67
2022/03/06 00:13:59;;;;;;;5.15;2.80;;;;;;;;;;5052593;28;20076;-67
2022/03/06 00:16:25;;;;;;;5.80;2.63;;;;;;;;;;5053780;28;20095;-67
2022/03/06 00:18:51;;;;;;;7.80;3.75;;;;;;;;;;5052203;28;20056;-67
2022/03/06 00:21:17;;;;;;;5.78;2.90;;;;;;;;;;5049961;28;20071;-67
2022/03/06 00:23:43;;;;;;;6.68;3.20;;;;;;;;;;5052257;28;20060;-63
2022/03/06 00:26:10;;;;;;;6.45;2.80;;;;;;;;;;5051875;28;20052;-63
2022/03/06 00:28:36;;;;;;;7.50;3.08;;;;;;;;;;5050958;28;20048;-63
2022/03/06 00:31:02;;;;;;;6.15;2.85;;;;;;;;;;5050098;28;20052;-64
2022/03/06 00:33:28;;;;;;;7.07;2.70;;;;;;;;;;5048366;28;20056;-64
2022/03/06 00:35:54;;;;;;;7.07;3.28;;;;;;;;;;5052614;28;20040;-64
2022/03/06 00:38:20;;;;;;;5.82;2.58;;;;;;;;;;5050690;28;20055;-63
2022/03/06 00:40:47;;;;;;;5.50;2.90;;;;;;;;;;5052409;28;20052;-63
2022/03/06 00:43:13;;;;;;;6.88;3.00;;;;;;;;;;5049000;28;20051;-63
2022/03/06 00:45:39;;;;;;;5.47;2.80;;;;;;;;;;5052111;28;21440;-63
2022/03/06 00:48:05;;;;;;;5.50;2.80;;;;;;;;;;5050918;28;20040;-64
2022/03/06 00:50:31;;;;;;;5.68;2.45;;;;;;;;;;5053349;28;20032;-63
2022/03/06 00:53:00;;;;;;;6.22;3.00;;;;;;;;;;5049580;28;20531;-63
2022/03/06 00:55:26;;;;;;;6.13;2.85;;;;;;;;;;5031391;28;20615;-63
2022/03/06 00:57:52;;;;;;;6.05;2.80;;;;;;;;;;5062817;28;20041;-63
2022/03/06 01:00:18;;;;;;;5.55;2.75;;;;;;;;;;5062858;28;20090;-63
2022/03/06 01:02:44;;;;;;;6.32;2.75;;;;;;;;;;5042088;28;20076;-64
2022/03/06 01:05:10;;;;;;;5.90;2.45;;;;;;;;;;5047200;28;20087;-63
2022/03/06 01:07:36;;;;;;;6.20;2.70;;;;;;;;;;5049770;28;20060;-64
2022/03/06 01:10:02;;;;;;;6.35;3.03;;;;;;;;;;5063504;28;20048;-63
2022/03/06 01:12:28;;;;;;;5.38;2.78;;;;;;;;;;5061695;28;20037;-63
2022/03/06 01:14:54;;;;;;;5.20;2.38;;;;;;;;;;5062937;28;20813;-63
2022/03/06 01:17:20;;;;;;;5.38;2.53;;;;;;;;;;5061839;28;20044;-63
2022/03/06 01:19:47;;;;;;;5.28;2.35;;;;;;;;;;5063773;28;20056;-63
2022/03/06 01:22:14;;;;;;;5.32;2.50;;;;;;;;;;5062002;28;20059;-63
2022/03/06 01:24:40;;;;;;;5.72;2.50;;;;;;;;;;5062677;28;20056;-63
2022/03/06 01:27:05;;;;;;;6.35;2.40;;;;;;;;;;5062792;28;20036;-63
2022/03/06 01:29:31;;;;;;;5.43;2.20;;;;;;;;;;5061412;28;20072;-63
2022/03/06 01:31:58;;;;;;;5.53;2.70;;;;;;;;;;5062078;28;20145;-63
2022/03/06 01:34:24;;;;;;;4.88;2.35;;;;;;;;;;5062116;28;20047;-63
2022/03/06 01:36:50;;;;;;;5.38;2.83;;;;;;;;;;5062789;28;20596;-63
2022/03/06 01:39:15;;;;;;;5.75;2.35;;;;;;;;;;5044816;28;20049;-63
2022/03/06 01:41:41;;;;;;;5.65;2.42;;;;;;;;;;5062630;28;20049;-63
2022/03/06 01:44:11;;;;;;;5.35;2.50;;;;;;;;;;5061366;28;20097;-64
2022/03/06 01:46:37;;;;;;;5.63;2.50;;;;;;;;;;5046551;28;20072;-63
2022/03/06 01:49:03;;;;;;;5.43;2.45;;;;;;;;;;5063650;28;20078;-64
2022/03/06 01:51:29;;;;;;;5.35;2.50;;;;;;;;;;5062578;28;20037;-64
2022/03/06 01:53:55;;;;;;;5.15;2.35;;;;;;;;;;5060583;28;20040;-63
2022/03/06 01:56:21;;;;;;;5.05;2.45;;;;;;;;;;5062697;28;20051;-63
2022/03/06 01:58:48;;;;;;;5.85;2.40;;;;;;;;;;5061448;28;20066;-63
2022/03/06 02:01:14;;;;;;;5.20;2.22;;;;;;;;;;5062130;28;20131;-64
2022/03/06 02:03:40;;;;;;;7.53;2.50;;;;;;;;;;5045381;28;20044;-64
2022/03/06 02:06:09;;;;;;;4.43;2.00;;;;;;;;;;5062545;28;20045;-64
2022/03/06 02:08:35;;;;;;;5.40;2.47;;;;;;;;;;5044757;28;20528;-63
2022/03/06 02:11:01;;;;;;;6.03;2.80;;;;;;;;;;5062672;28;20045;-64
2022/03/06 02:13:27;;;;;;;5.03;2.45;;;;;;;;;;5061723;28;20123;-63
2022/03/06 02:15:54;;;;;;;4.57;1.95;;;;;;;;;;5062605;28;20047;-63
2022/03/06 02:18:20;;;;;;;5.07;2.17;;;;;;;;;;5060937;28;20052;-64
2022/03/06 02:20:47;;;;;;;5.22;2.47;;;;;;;;;;5062532;28;20488;-63
2022/03/06 02:23:13;;;;;;;5.47;2.42;;;;;;;;;;5060667;28;20049;-63
2022/03/06 02:25:39;;;;;;;5.30;2.22;;;;;;;;;;5061648;28;20054;-63
2022/03/06 02:28:06;;;;;;;5.97;2.30;;;;;;;;;;5060604;28;20108;-63
2022/03/06 02:30:33;;;;;;;5.90;2.05;;;;;;;;;;5065073;28;20521;-64
2022/03/06 02:33:02;;;;;;;4.63;2.05;;;;;;;;;;5063958;28;20040;-63
2022/03/06 02:35:28;;;;;;;6.15;2.30;;;;;;;;;;5049333;28;20048;-63
2022/03/06 02:37:55;;;;;;;4.75;2.33;;;;;;;;;;5064824;28;20090;-63
2022/03/06 02:40:22;;;;;;;4.43;2.00;;;;;;;;;;5065633;28;20071;-64
2022/03/06 02:42:50;;;;;;;4.47;2.08;;;;;;;;;;5064019;28;20120;-63
2022/03/06 02:45:18;;;;;;;5.82;2.40;;;;;;;;;;5065550;28;20052;-63
2022/03/06 02:47:44;;;;;;;5.70;2.28;;;;;;;;;;5063919;28;20040;-63
2022/03/06 02:50:12;;;;;;;4.80;2.05;;;;;;;;;;5048970;28;20544;-64
2022/03/06 02:52:38;;;;;;;4.68;2.17;;;;;;;;;;5063932;28;20115;-63
2022/03/06 02:55:05;;;;;;;4.88;1.95;;;;;;;;;;5032631;28;20055;-63
2022/03/06 02:57:31;;;;;;;5.00;2.35;;;;;;;;;;5049119;28;20609;-64
2022/03/06 02:59:57;;;;;;;6.55;2.53;;;;;;;;;;5048727;28;20127;-63
2022/03/06 03:02:23;;;;;;;5.72;2.17;;;;;;;;;;5063693;28;20041;-63
2022/03/06 03:04:49;;;;;;;5.28;2.20;;;;;;;;;;5065553;28;20043;-63
2022/03/06 03:07:15;;;;;;;5.78;2.60;;;;;;;;;;5065832;28;20650;-64
2022/03/06 03:09:41;;;;;;;5.28;2.40;;;;;;;;;;5064744;28;20037;-63
2022/03/06 03:12:08;;;;;;;5.10;2.40;;;;;;;;;;5065833;28;20596;-63
2022/03/06 03:14:35;;;;;;;4.95;2.10;;;;;;;;;;5064450;28;20047;-64
2022/03/06 03:17:02;;;;;;;4.95;2.10;;;;;;;;;;5064861;28;20097;-63
2022/03/06 03:19:28;;;;;;;6.30;2.42;;;;;;;;;;5064080;28;20052;-64
2022/03/06 03:21:55;;;;;;;5.53;2.30;;;;;;;;;;5065231;28;20052;-64
2022/03/06 03:24:21;;;;;;;5.20;2.40;;;;;;;;;;5045948;28;20529;-64
2022/03/06 03:26:47;;;;;;;4.97;2.20;;;;;;;;;;5044895;28;20513;-63
2022/03/06 03:29:13;;;;;;;6.75;1.95;;;;;;;;;;5034934;28;20175;-63
2022/03/06 03:31:39;;;;;;;5.07;2.10;;;;;;;;;;5032877;28;20053;-63
2022/03/06 03:34:05;;;;;;;4.90;2.00;;;;;;;;;;5063472;28;20471;-64
2022/03/06 03:36:31;;;;;;;4.97;1.98;;;;;;;;;;5064788;28;20048;-63
2022/03/06 03:38:57;;;;;;;5.45;1.92;;;;;;;;;;5063838;28;20421;-63
2022/03/06 03:41:24;;;;;;;5.07;2.22;;;;;;;;;;5028301;28;20045;-63
2022/03/06 03:43:50;;;;;;;4.53;2.00;;;;;;;;;;5041705;28;20056;-64
2022/03/06 03:46:16;;;;;;;5.30;2.20;;;;;;;;;;5045175;28;20116;-64
2022/03/06 03:48:42;;;;;;;5.85;2.45;;;;;;;;;;5038418;28;20124;-64
2022/03/06 03:51:08;;;;;;;5.43;2.20;;;;;;;;;;5046315;28;20045;-64
2022/03/06 03:53:34;;;;;;;5.38;2.50;;;;;;;;;;5054875;28;20079;-64
2022/03/06 03:56:00;;;;;;;4.38;1.83;;;;;;;;;;5064625;28;20616;-64
2022/03/06 03:58:26;;;;;;;4.85;1.80;;;;;;;;;;5063111;28;20164;-64
2022/03/06 04:00:55;;;;;;;4.63;2.00;;;;;;;;;;5064084;28;20623;-64
2022/03/06 04:03:21;;;;;;;4.57;1.83;;;;;;;;;;5046913;28;20033;-64
2022/03/06 04:05:47;;;;;;;6.30;1.80;;;;;;;;;;5065876;28;20559;-64
2022/03/06 04:08:14;;;;;;;4.13;1.75;;;;;;;;;;5064023;28;20100;-64
2022/03/06 04:10:40;;;;;;;4.88;1.90;;;;;;;;;;5064489;28;20109;-64
2022/03/06 04:13:06;;;;;;;4.95;2.00;;;;;;;;;;5063477;28;20632;-64
2022/03/06 04:15:32;;;;;;;4.95;1.90;;;;;;;;;;5064317;28;20105;-64
2022/03/06 04:17:58;;;;;;;4.43;1.80;;;;;;;;;;5062452;28;20055;-64
2022/03/06 04:20:24;;;;;;;5.40;1.80;;;;;;;;;;5063950;28;20497;-64
2022/03/06 04:22:50;;;;;;;4.43;1.73;;;;;;;;;;5061695;28;20071;-64
2022/03/06 04:25:16;;;;;;;4.80;1.80;;;;;;;;;;5063887;28;20055;-64
2022/03/06 04:27:42;;;;;;;4.60;1.90;;;;;;;;;;5061760;28;20037;-64
2022/03/06 04:30:09;;;;;;;4.63;1.77;;;;;;;;;;5064441;28;20037;-64
2022/03/06 04:32:35;;;;;;;4.20;1.60;;;;;;;;;;5061776;28;20039;-64
2022/03/06 04:35:01;;;;;;;4.88;2.05;;;;;;;;;;5063744;28;20064;-64
2022/03/06 04:37:27;;;;;;;4.25;1.63;;;;;;;;;;5060371;28;20052;-64
2022/03/06 04:39:53;;;;;;;4.50;1.60;;;;;;;;;;5025852;28;20056;-64
2022/03/06 04:42:19;;;;;;;5.20;2.10;;;;;;;;;;5043890;28;20053;-64
2022/03/06 04:44:45;;;;;;;4.85;1.80;;;;;;;;;;5063203;28;20036;-64
2022/03/06 04:47:11;;;;;;;7.38;1.90;;;;;;;;;;5062699;28;20037;-64
2022/03/06 04:49:37;;;;;;;5.03;1.92;;;;;;;;;;5062948;28;20116;-64
2022/03/06 04:52:04;;;;;;;4.78;1.90;;;;;;;;;;5062992;28;20052;-64
2022/03/06 04:54:30;;;;;;;5.00;1.90;;;;;;;;;;5062137;28;20573;-64
2022/03/06 04:56:56;;;;;;;6.50;1.90;;;;;;;;;;5062868;28;20080;-64
2022/03/06 04:59:22;;;;;;;5.13;1.90;;;;;;;;;;5061603;28;20048;-64
2022/03/06 05:01:48;;;;;;;4.63;1.80;;;;;;;;;;5046351;28;20098;-64
2022/03/06 05:04:14;;;;;;;4.60;1.80;;;;;;;;;;5061696;28;20063;-64
2022/03/06 05:06:40;;;;;;;4.68;1.83;;;;;;;;;;5063292;28;20583;-64
2022/03/06 05:09:06;;;;;;;4.05;1.70;;;;;;;;;;5061655;28;20036;-64
2022/03/06 05:11:33;;;;;;;4.78;1.70;;;;;;;;;;5063341;28;20052;-64
2022/03/06 05:13:59;;;;;;;3.70;1.65;;;;;;;;;;5061492;28;20084;-64
2022/03/06 05:16:25;;;;;;;5.15;1.73;;;;;;;;;;5063069;28;20049;-64
2022/03/06 05:18:51;;;;;;;4.25;1.40;;;;;;;;;;5061471;28;20136;-64
2022/03/06 05:21:17;;;;;;;4.57;1.60;;;;;;;;;;5063590;28;20048;-64
2022/03/06 05:23:43;;;;;;;5.57;1.80;;;;;;;;;;5061368;28;20060;-64
2022/03/06 05:26:09;;;;;;;4.40;1.65;;;;;;;;;;5046338;28;20079;-64
2022/03/06 05:28:36;;;;;;;4.22;1.60;;;;;;;;;;5062248;28;20072;-64
2022/03/06 05:31:02;;;;;;;4.63;1.80;;;;;;;;;;5062311;28;20051;-63
2022/03/06 05:33:28;;;;;;;4.25;1.52;;;;;;;;;;5061282;28;20037;-63
2022/03/06 05:35:54;;;;;;;3.90;1.40;;;;;;;;;;5062765;28;20589;-63
2022/03/06 05:38:20;;;;;;;5.00;1.83;;;;;;;;;;5062010;28;20041;-63
2022/03/06 05:40:46;;;;;;;5.47;1.80;;;;;;;;;;5062326;28;20048;-63
2022/03/06 05:43:12;;;;;;;3.90;1.48;;;;;;;;;;5061453;28;20033;-64
2022/03/06 05:45:38;;;;;;;4.45;1.40;;;;;;;;;;5062752;28;20124;-64
2022/03/06 05:48:04;;;;;;;5.57;1.60;;;;;;;;;;5061923;28;20036;-63
2022/03/06 05:50:30;;;;;;;4.47;1.52;;;;;;;;;;5062905;28;20040;-64
2022/03/06 05:52:56;;;;;;;5.45;1.55;;;;;;;;;;5061205;28;20122;-63
2022/03/06 05:55:22;;;;;;;4.65;1.83;;;;;;;;;;5062585;28;20040;-64
2022/03/06 05:57:48;;;;;;;3.30;1.20;;;;;;;;;;5062628;28;20037;-64
2022/03/06 06:00:17;;;;;;;3.92;1.45;;;;;;;;;;5063151;28;20503;-64
2022/03/06 06:02:43;;;;;;;4.15;1.55;;;;;;;;;;5045212;28;20605;-64
2022/03/06 06:05:09;;;;;;;4.53;1.55;;;;;;;;;;5066111;28;20627;-63
2022/03/06 06:07:36;;;;;;;3.22;1.40;;;;;;;;;;5033313;28;20031;-64
2022/03/06 06:10:04;;;;;;;4.75;1.55;;;;;;;;;;5068315;28;20421;-64
2022/03/06 06:12:30;;;;;;;4.40;1.50;;;;;;;;;;5065184;28;20052;-64
2022/03/06 06:14:56;;;;;;;4.25;1.40;;;;;;;;;;5066230;28;20043;-64
2022/03/06 06:17:22;;;;;;;3.25;1.35;;;;;;;;;;5047510;28;20048;-63
2022/03/06 06:19:48;;;;;;;3.85;1.65;;;;;;;;;;5066110;28;20044;-63
2022/03/06 06:22:14;;;;;;;3.67;1.20;;;;;;;;;;5064633;28;20045;-63
2022/03/06 06:24:40;;;;;;;4.88;1.50;;;;;;;;;;5065559;28;20044;-63
2022/03/06 06:27:06;;;;;;;3.88;1.50;;;;;;;;;;5065824;28;20416;-64
2022/03/06 06:29:32;;;;;;;3.80;1.30;;;;;;;;;;5065049;28;20042;-64
2022/03/06 06:31:59;;;;;;;4.70;1.50;;;;;;;;;;5049373;28;20124;-64
2022/03/06 06:34:25;;;;;;;3.78;1.30;;;;;;;;;;5064874;28;20049;-64
2022/03/06 06:36:51;;;;;;;3.95;1.40;;;;;;;;;;5067547;28;20070;-64
2022/03/06 06:39:17;;;;;;;3.97;1.30;;;;;;;;;;5063707;28;20049;-64
2022/03/06 06:41:43;;;;;;;4.70;1.42;;;;;;;;;;5065900;28;20052;-64
2022/03/06 06:44:10;;;;;;;4.75;1.55;;;;;;;;;;5065198;28;20045;-64
2022/03/06 06:46:36;;;;;;;4.03;1.40;;;;;;;;;;5065286;28;20540;-64
2022/03/06 06:49:03;;;;;;;3.83;1.30;;;;;;;;;;5063131;28;20043;-63
2022/03/06 06:51:29;;;;;;;4.32;1.17;;;;;;;;;;5048668;28;20048;-64
2022/03/06 06:53:55;;;;;;;3.72;1.30;;;;;;;;;;5047796;28;20049;-63
2022/03/06 06:56:21;;;;;;;3.63;1.30;;;;;;;;;;5066445;28;20041;-64
2022/03/06 06:58:47;;;;;;;2.42;1.10;;;;;;;;;;5065475;28;20550;-64
2022/03/06 07:01:15;;;;;;;4.65;1.30;;;;;;;;;;5065947;28;20566;-64
2022/03/06 07:03:41;;;;;;;3.47;1.27;;;;;;;;;;5065103;28;20039;-63
2022/03/06 07:06:07;;;;;;;3.17;1.20;;;;;;;;;;5048952;28;20040;-64
2022/03/06 07:08:33;;;;;;;4.28;1.23;;;;;;;;;;5064178;28;20038;-64
2022/03/06 07:10:59;;;;;;;3.78;1.40;;;;;;;;;;5065454;28;20043;-64
2022/03/06 07:13:25;;;;;;;3.95;1.20;;;;;;;;;;5047526;28;20071;-63
2022/03/06 07:15:51;;;;;;;3.28;1.40;;;;;;;;;;5063647;28;20068;-64
2022/03/06 07:18:17;;;;;;;3.95;1.30;;;;;;;;;;5063811;28;20032;-64
2022/03/06 07:20:43;;;;;;;3.40;1.05;;;;;;;;;;5065033;28;20105;-63
2022/03/06 07:23:09;;;;;;;4.00;1.40;;;;;;;;;;5062898;28;20048;-63
2022/03/06 07:25:36;;;;;;;5.38;1.38;;;;;;;;;;5046862;28;20741;-63
2022/03/06 07:28:02;;;;;;;4.35;1.52;;;;;;;;;;5013909;28;20169;-63
2022/03/06 07:30:27;;;;;;;4.75;1.48;;;;;;;;;;5043502;28;20041;-63
2022/03/06 07:32:54;;;;;;;4.15;1.35;;;;;;;;;;5047371;28;20045;-63
2022/03/06 07:35:20;;;;;;;3.38;1.27;;;;;;;;;;5045192;28;20033;-64
2022/03/06 07:37:47;;;;;;;3.95;1.40;;;;;;;;;;5047934;28;20597;-64
2022/03/06 07:40:14;;;;;;;3.10;1.30;;;;;;;;;;5047098;28;20120;-63
2022/03/06 07:42:40;;;;;;;4.38;1.50;;;;;;;;;;5047271;28;20048;-63
2022/03/06 07:45:07;;;;;;;3.13;1.13;;;;;;;;;;5064168;28;20041;-63
2022/03/06 07:47:33;;;;;;;3.70;1.25;;;;;;;;;;5062578;28;20041;-63
2022/03/06 07:49:59;;;;;;;3.63;1.20;;;;;;;;;;5045709;28;20464;-63
2022/03/06 07:52:25;;;;;;;3.67;1.30;;;;;;;;;;5033912;28;20045;-63
2022/03/06 07:54:51;;;;;;;3.10;1.17;;;;;;;;;;5063850;28;20052;-63
2022/03/06 07:57:17;;;;;;;3.40;1.13;;;;;;;;;;5062302;28;20217;-64
2022/03/06 07:59:43;;;;;;;4.15;1.40;;;;;;;;;;5064314;28;20054;-64
2022/03/06 08:02:09;;;;;;;3.22;0.95;;;;;;;;;;5063047;28;20045;-64
2022/03/06 08:04:36;;;;;;;2.67;1.00;;;;;;;;;;5063853;28;20075;-63
2022/03/06 08:07:02;;;;;;;3.80;1.10;;;;;;;;;;5064042;28;20600;-64
2022/03/06 08:09:27;;;;;;;2.28;0.90;;;;;;;;;;5058181;28;20041;-64
2022/03/06 08:11:54;;;;;;;3.88;1.10;;;;;;;;;;5052101;28;20040;-64
2022/03/06 08:14:20;;;;;;;4.03;1.20;;;;;;;;;;5051283;28;20049;-64
2022/03/06 08:16:46;;;;;;;2.33;0.90;;;;;;;;;;5030286;28;20128;-64
2022/03/06 08:19:12;;;;;;;2.67;1.13;;;;;;;;;;5041604;28;20057;-63
2022/03/06 08:21:39;;;;;;;3.13;1.10;;;;;;;;;;5033740;28;20095;-66
2022/03/06 08:24:05;;;;;;;2.88;0.93;;;;;;;;;;5059497;28;20060;-65
2022/03/06 08:26:31;;;;;;;3.17;1.00;;;;;;;;;;5063056;28;20123;-64
2022/03/06 08:28:57;;;;;;;2.80;0.90;;;;;;;;;;5062245;28;20599;-64
2022/03/06 08:31:23;;;;;;;3.55;1.00;;;;;;;;;;5064171;28;20083;-63
2022/03/06 08:33:50;;;;;;;3.08;1.00;;;;;;;;;;5060771;28;20052;-63
2022/03/06 08:36:16;;;;;;;3.00;1.05;;;;;;;;;;5063186;28;20044;-63
2022/03/06 08:38:42;;;;;;;2.15;0.85;;;;;;;;;;5061401;28;20052;-63
2022/03/06 08:41:08;;;;;;;2.75;0.88;;;;;;;;;;5062214;28;20120;-63
2022/03/06 08:43:34;;;;;;;2.90;1.00;;;;;;;;;;5050372;28;20652;-63
2022/03/06 08:46:03;;;;;;;3.75;1.00;;;;;;;;;;5050624;28;20036;-63
2022/03/06 08:48:29;;;;;;;5.13;1.13;;;;;;;;;;5030141;28;20041;-63
2022/03/06 08:50:55;;;;;;;3.20;0.98;;;;;;;;;;5052249;28;20036;-64
2022/03/06 08:53:20;;;;;;;3.28;1.10;;;;;;;;;;5047612;28;20051;-63
2022/03/06 08:55:47;;;;;;;2.42;0.80;;;;;;;;;;5048822;28;20071;-64
2022/03/06 08:58:13;;;;;;;2.45;0.90;;;;;;;;;;5050095;28;20506;-64
2022/03/06 09:00:39;;;;;;;2.97;1.00;;;;;;;;;;5063328;28;20071;-63
2022/03/06 09:03:05;;;;;;;2.47;0.93;;;;;;;;;;5061654;28;20105;-63
2022/03/06 09:05:31;;;;;;;4.57;1.10;;;;;;;;;;5063059;28;20637;-64
2022/03/06 09:07:57;;;;;;;3.75;0.95;;;;;;;;;;5061932;28;20059;-64
2022/03/06 09:10:23;;;;;;;2.95;0.98;;;;;;;;;;5062201;28;20040;-63
2022/03/06 09:12:49;;;;;;;4.03;1.00;;;;;;;;;;5029892;28;20563;-64
2022/03/06 09:15:15;;;;;;;4.10;1.10;;;;;;;;;;5044527;28;20041;-63
2022/03/06 09:17:41;;;;;;;3.05;1.15;;;;;;;;;;5052508;28;20055;-63
2022/03/06 09:20:07;;;;;;;3.58;0.90;;;;;;;;;;5050875;28;20135;-63
2022/03/06 09:22:33;;;;;;;4.35;1.10;;;;;;;;;;5046756;28;20045;-64
2022/03/06 09:24:59;;;;;;;3.63;0.93;;;;;;;;;;5046771;28;20107;-63
2022/03/06 09:27:25;;;;;;;3.00;1.00;;;;;;;;;;5046764;28;20048;-63
2022/03/06 09:29:51;;;;;;;2.15;0.80;;;;;;;;;;5049904;28;20048;-63
2022/03/06 09:32:17;;;;;;;3.22;0.93;;;;;;;;;;5044073;28;20075;-64
2022/03/06 09:34:43;;;;;;;2.95;0.90;;;;;;;;;;5033811;28;20098;-64
2022/03/06 09:37:10;;;;;;;2.40;0.82;;;;;;;;;;5050186;28;20150;-65
2022/03/06 09:39:36;;;;;;;3.45;1.00;;;;;;;;;;5054280;28;20525;-64
2022/03/06 09:42:02;;;;;;;3.03;0.82;;;;;;;;;;5052539;28;20135;-64
2022/03/06 09:44:30;;;;;;;4.18;0.90;;;;;;;;;;5052229;28;20367;-64
2022/03/06 09:46:56;;;;;;;2.63;0.82;;;;;;;;;;5055991;28;20036;-64
2022/03/06 09:49:23;;;;;;;2.53;0.68;;;;;;;;;;5047529;28;20048;-64
2022/03/06 09:51:49;;;;;;;3.53;0.88;;;;;;;;;;5051985;28;20505;-64
2022/03/06 09:54:16;;;;;;;2.95;0.88;;;;;;;;;;5067194;28;20035;-64
2022/03/06 09:56:42;;;;;;;3.25;0.90;;;;;;;;;;5058841;28;20059;-64
2022/03/06 09:59:08;;;;;;;3.25;0.93;;;;;;;;;;5050267;28;20519;-64
2022/03/06 10:01:35;;;;;;;3.22;0.80;;;;;;;;;;5046540;28;20130;-64
2022/03/06 10:04:20;;;;;;;3.72;1.00;;;;;;;;;;5061461;28;20425;-64
2022/03/06 10:07:03;;;;;;;3.60;0.90;;;;;;;;;;5066489;28;20071;-64
2022/03/06 10:09:29;;;;;;;4.70;0.90;;;;;;;;;;5049773;28;20123;-64
2022/03/06 10:11:56;;;;;;;5.30;1.10;;;;;;;;;;5046251;28;20647;-64
2022/03/06 10:14:34;;;;;;;3.38;0.80;;;;;;;;;;5047933;28;20126;-64
2022/03/06 10:17:17;;;;;;;3.63;0.85;;;;;;;;;;5039240;28;20071;-64
2022/03/06 10:19:54;;;;;;;3.97;0.90;;;;;;;;;;5053789;28;20628;-64
2022/03/06 10:22:20;;;;;;;3.58;1.00;;;;;;;;;;5045304;28;20059;-64
2022/03/06 10:24:50;;;;;;;3.47;0.90;;;;;;;;;;5059689;28;21281;-64
2022/03/06 10:27:17;;;;;;;3.58;1.27;;;;;;;;;;5063348;28;20447;-64
2022/03/06 10:29:44;;;;;;;3.45;0.98;;;;;;;;;;5065789;28;20037;-64
2022/03/06 10:32:10;;;;;;;4.03;0.90;;;;;;;;;;5065029;28;20040;-64
2022/03/06 10:34:39;;;;;;;2.55;0.77;;;;;;;;;;5065536;28;20036;-65
2022/03/06 10:37:06;;;;;;;3.47;0.80;;;;;;;;;;5065819;28;20151;-64
2022/03/06 10:39:45;;;;;;;4.35;1.08;;;;;;;;;;5065441;28;20037;-64
2022/03/06 10:42:11;;;;;;;2.78;0.90;;;;;;;;;;5048000;28;20048;-63
2022/03/06 10:44:47;;;;;;;2.70;0.90;;;;;;;;;;5050624;28;20052;-63
2022/03/06 10:47:13;;;;;;;3.10;0.73;;;;;;;;;;5029124;28;20047;-63
2022/03/06 10:49:39;;;;;;;2.65;0.90;;;;;;;;;;5053395;28;20067;-64
2022/03/06 10:52:19;;;;;;;2.63;0.93;;;;;;;;;;5036089;28;20659;-64
2022/03/06 10:54:52;;;;;;;5.38;1.10;;;;;;;;;;5035916;28;20055;-64
2022/03/06 10:57:18;;;;;;;2.72;0.80;;;;;;;;;;5053539;28;20616;-64
2022/03/06 10:59:45;;;;;;;7.80;1.02;;;;;;;;;;5055450;28;20137;-62
2022/03/06 11:02:12;;;;;;;3.78;1.00;;;;;;;;;;5050203;28;20124;-63
2022/03/06 11:04:38;;;;;;;4.00;0.98;;;;;;;;;;5051389;28;20133;-63
2022/03/06 11:07:05;;;;;;;4.28;0.90;;;;;;;;;;5045634;28;21798;-63
2022/03/06 11:09:31;;;;;;;5.65;0.93;;;;;;;;;;5048615;28;20045;-63
2022/03/06 11:11:58;;;;;;;3.83;0.82;;;;;;;;;;5052132;28;20412;-62
2022/03/06 11:14:24;;;;;;;2.85;0.98;;;;;;;;;;5037392;28;20084;-62
2022/03/06 11:16:50;;;;;;;3.10;0.80;;;;;;;;;;5033302;28;20047;-62
2022/03/06 11:19:16;;;;;;;3.72;0.88;;;;;;;;;;5035684;28;20033;-63
2022/03/06 11:21:44;;;;;;;4.70;0.85;;;;;;;;;;5054410;28;20682;-64
2022/03/06 11:24:36;;;;;;;2.42;0.68;;;;;;;;;;5051249;28;20364;-64
2022/03/06 11:27:02;;;;;;;3.85;0.88;;;;;;;;;;5046802;28;20609;-63
2022/03/06 11:29:40;;;;;;;4.40;1.02;;;;;;;;;;5035883;28;20063;-64
2022/03/06 11:32:07;;;;;;;2.83;0.82;;;;;;;;;;5049538;28;20042;-63
2022/03/06 11:34:35;;;;;;;4.57;0.93;;;;;;;;;;5051083;28;20480;-63
2022/03/06 11:37:05;;;;;;;5.38;1.35;;;;;;;;;;5053069;28;20083;-62
2022/03/06 11:39:31;;;;;;;3.25;1.25;;;;;;;;;;5053962;28;20064;-62
2022/03/06 11:41:58;;;;;;;4.55;0.93;;;;;;;;;;5035059;28;20516;-62
2022/03/06 11:44:38;;;;;;;7.80;2.92;;;;;;;;;;5061660;28;20720;-62
2022/03/06 11:47:14;;;;;;;5.43;1.75;;;;;;;;;;5054419;28;20044;-62
2022/03/06 11:49:40;;;;;;;11.43;1.30;;;;;;;;;;5030080;28;21783;-62
2022/03/06 11:52:26;;;;;;;6.55;1.23;;;;;;;;;;5057824;28;20051;-64
2022/03/06 11:54:52;;;;;;;9.77;1.48;;;;;;;;;;5060945;28;20048;-64
2022/03/06 11:57:37;;;;;;;7.25;1.20;;;;;;;;;;5060210;28;20049;-64
2022/03/06 12:00:21;;;;;;;5.13;1.50;;;;;;;;;;5059544;28;20048;-64
2022/03/06 12:02:47;;;;;;;8.77;1.73;;;;;;;;;;5042156;28;20040;-63
2022/03/06 12:05:16;;;;;;;9.82;1.88;;;;;;;;;;5063113;28;20544;-63
2022/03/06 12:07:42;;;;;;;6.80;1.40;;;;;;;;;;5057186;28;20045;-63
2022/03/06 12:10:11;;;;;;;8.75;1.70;;;;;;;;;;5059931;28;20036;-62
2022/03/06 12:12:38;;;;;;;10.02;2.05;;;;;;;;;;5042193;28;20056;-62
2022/03/06 12:15:14;;;;;;;13.88;2.35;;;;;;;;;;5039228;28;20081;-62
2022/03/06 12:17:40;;;;;;;9.43;2.30;;;;;;;;;;5040492;28;20059;-63
2022/03/06 12:20:09;;;;;;;12.73;2.80;;;;;;;;;;5060607;28;20044;-62
2022/03/06 12:22:37;;;;;;;17.80;3.08;;;;;;;;;;5060899;28;20535;-63
2022/03/06 12:25:09;;;;;;;22.15;3.33;;;;;;;;;;5060531;28;20536;-62
2022/03/06 12:27:39;;;;;;;31.15;4.30;;;;;;;;;;5061091;28;20037;-63
2022/03/06 12:30:09;;;;;;;36.38;4.35;;;;;;;;;;5061724;28;20041;-63
2022/03/06 12:32:36;;;;;;;22.00;2.83;;;;;;;;;;5060679;28;20036;-62
2022/03/06 12:35:09;;;;;;;20.08;3.22;;;;;;;;;;5057979;28;20048;-63
2022/03/06 12:37:41;;;;;;;30.75;3.83;;;;;;;;;;5058393;28;20041;-63
2022/03/06 12:40:07;;;;;;;14.20;3.10;;;;;;;;;;5061047;28;20036;-62
2022/03/06 12:42:34;;;;;;;13.60;2.63;;;;;;;;;;5061362;28;20044;-61
2022/03/06 12:45:02;;;;;;;20.40;3.22;;;;;;;;;;5062094;28;20044;-62
2022/03/06 12:47:29;;;;;;;16.88;2.55;;;;;;;;;;5059801;28;20056;-62
2022/03/06 12:49:56;;;;;;;20.05;2.83;;;;;;;;;;5052467;28;20045;-62
2022/03/06 12:52:24;;;;;;;14.30;2.35;;;;;;;;;;5049128;28;20502;-62
2022/03/06 12:54:51;;;;;;;13.15;2.30;;;;;;;;;;5049876;28;20131;-62
2022/03/06 12:57:20;;;;;;;14.63;2.30;;;;;;;;;;5055982;28;20048;-62
2022/03/06 12:59:49;;;;;;;11.48;2.33;;;;;;;;;;5058043;28;20327;-63
2022/03/06 13:02:19;;;;;;;11.07;2.08;;;;;;;;;;5058408;28;20098;-62
2022/03/06 13:04:49;;;;;;;10.82;1.55;;;;;;;;;;5040834;28;20040;-63
2022/03/06 13:07:15;;;;;;;8.90;1.90;;;;;;;;;;5043727;28;20063;-63
2022/03/06 13:09:41;;;;;;;11.82;2.03;;;;;;;;;;5060161;28;20033;-62
2022/03/06 13:12:07;;;;;;;8.65;1.58;;;;;;;;;;5059997;28;20052;-62
2022/03/06 13:14:35;;;;;;;10.27;1.85;;;;;;;;;;5061532;28;20087;-62
2022/03/06 13:17:02;;;;;;;11.50;1.92;;;;;;;;;;5057140;28;21211;-63
2022/03/06 13:19:36;;;;;;;9.23;1.60;;;;;;;;;;5054594;28;20048;-62
2022/03/06 13:22:04;;;;;;;8.48;1.70;;;;;;;;;;5057155;28;20485;-62
2022/03/06 13:24:38;;;;;;;9.82;2.15;;;;;;;;;;5058837;28;20052;-61
2022/03/06 13:27:04;;;;;;;10.70;2.20;;;;;;;;;;5056525;28;20071;-61
2022/03/06 13:29:30;;;;;;;11.30;2.15;;;;;;;;;;5036256;28;20066;-62
2022/03/06 13:31:56;;;;;;;8.18;1.90;;;;;;;;;;5034565;28;20517;-63
2022/03/06 13:34:22;;;;;;;8.98;1.83;;;;;;;;;;5058673;28;20041;-63
2022/03/06 13:36:48;;;;;;;7.78;1.80;;;;;;;;;;5044757;28;20106;-63
2022/03/06 13:39:16;;;;;;;8.15;1.88;;;;;;;;;;5053757;28;20130;-62
2022/03/06 13:41:58;;;;;;;7.60;1.65;;;;;;;;;;5040935;28;20103;-63
2022/03/06 13:44:25;;;;;;;10.30;2.38;;;;;;;;;;5059907;28;20064;-62
2022/03/06 13:46:51;;;;;;;6.50;2.30;;;;;;;;;;5044487;28;20076;-62
2022/03/06 13:49:19;;;;;;;16.52;2.50;;;;;;;;;;5039920;28;20048;-62
2022/03/06 13:51:46;;;;;;;14.88;4.13;;;;;;;;;;5061306;28;20051;-62
2022/03/06 13:54:12;;;;;;;20.20;3.72;;;;;;;;;;5059356;28;20051;-63
2022/03/06 13:56:42;;;;;;;24.33;3.53;;;;;;;;;;5062014;28;20075;-62
2022/03/06 13:59:10;;;;;;;15.52;3.17;;;;;;;;;;5059946;28;20036;-62
2022/03/06 14:01:37;;;;;;;21.95;3.95;;;;;;;;;;5060434;28;20628;-62
2022/03/06 14:04:08;;;;;;;14.00;3.00;;;;;;;;;;5052700;28;20045;-62
2022/03/06 14:06:38;;;;;;;16.20;3.28;;;;;;;;;;5061437;28;20049;-62
2022/03/06 14:09:17;;;;;;;16.63;3.00;;;;;;;;;;5042948;28;20044;-62
2022/03/06 14:11:43;;;;;;;16.13;3.33;;;;;;;;;;5062733;28;20509;-62
2022/03/06 14:14:09;;;;;;;17.40;2.90;;;;;;;;;;5044456;28;20055;-62
2022/03/06 14:16:35;;;;;;;12.95;3.03;;;;;;;;;;5060719;28;20439;-62
2022/03/06 14:19:04;;;;;;;15.18;2.42;;;;;;;;;;5060492;28;20048;-62
2022/03/06 14:21:38;;;;;;;15.05;2.63;;;;;;;;;;5044277;28;20052;-63
2022/03/06 14:24:08;;;;;;;19.13;2.75;;;;;;;;;;5060519;28;20048;-62
2022/03/06 14:26:42;;;;;;;12.65;2.70;;;;;;;;;;5065297;28;20374;-62
2022/03/06 14:29:09;;;;;;;12.50;2.60;;;;;;;;;;5062663;28;20045;-62
2022/03/06 14:31:36;;;;;;;11.88;2.55;;;;;;;;;;5065828;28;20055;-62
2022/03/06 14:34:03;;;;;;;10.70;2.25;;;;;;;;;;5062493;28;20107;-62
2022/03/06 14:36:29;;;;;;;10.55;2.63;;;;;;;;;;5064730;28;20056;-62
2022/03/06 14:38:55;;;;;;;15.30;2.10;;;;;;;;;;5062047;28;20090;-62
2022/03/06 14:41:22;;;;;;;9.13;2.05;;;;;;;;;;5064544;28;20060;-62